Time;durP1;ratioP1;P1;durP2;ratioP2;P2;SDS_P1;SDS_P2;PMS_P1;PMS_P2;Temp;Humidity;BMP_temperature;BMP_pressure;BME280_temperature;BME280_humidity;BME280_pressure;Samples;Min_cycle;Max_cycle;Signal;HPM_P1;HPM_P2
2023/12/07 00:00:16;;;;;;;11.15;2.45;;;;;;;2.64;100.00;100691.00;5063965;28;20033;-69
2023/12/07 00:02:42;;;;;;;6.82;2.28;;;;;;;2.59;100.00;100687.88;5058025;28;20040;-70
2023/12/07 00:05:08;;;;;;;5.30;1.48;;;;;;;2.63;100.00;100686.78;5058968;28;20071;-70
2023/12/07 00:07:33;;;;;;;2.55;0.85;;;;;;;2.77;99.79;100679.09;5060892;28;20159;-69
2023/12/07 00:09:59;;;;;;;3.28;0.93;;;;;;;2.91;98.89;100686.00;5060897;28;20025;-70
2023/12/07 00:12:24;;;;;;;3.13;0.85;;;;;;;2.92;97.84;100688.47;5057315;28;20367;-70
2023/12/07 00:14:49;;;;;;;2.78;0.93;;;;;;;2.99;97.33;100700.06;5061168;28;20052;-69
2023/12/07 00:17:15;;;;;;;4.78;1.20;;;;;;;3.08;96.91;100703.03;5060276;28;20109;-70
2023/12/07 00:19:40;;;;;;;3.15;0.70;;;;;;;3.08;97.04;100703.03;5055778;28;20039;-69
2023/12/07 00:22:06;;;;;;;2.67;1.10;;;;;;;3.03;96.50;100700.72;5063403;28;20028;-70
2023/12/07 00:24:31;;;;;;;5.07;1.15;;;;;;;2.96;98.05;100692.53;5062354;28;20494;-70
2023/12/07 00:26:57;;;;;;;5.30;0.60;;;;;;;2.92;98.39;100693.63;5061345;28;20032;-70
2023/12/07 00:29:22;;;;;;;2.15;0.60;;;;;;;2.89;98.67;100698.94;5054491;28;20025;-70
2023/12/07 00:31:47;;;;;;;2.83;1.02;;;;;;;2.95;97.74;100698.59;5058274;28;20087;-70
2023/12/07 00:34:13;;;;;;;3.78;1.15;;;;;;;3.08;96.20;100696.13;5056099;28;20037;-70
2023/12/07 00:36:41;;;;;;;2.78;0.68;;;;;;;3.20;95.35;100692.00;5060830;28;20028;-70
2023/12/07 00:39:07;;;;;;;4.53;1.10;;;;;;;3.30;95.26;100693.94;5050625;28;20017;-70
2023/12/07 00:41:32;;;;;;;1.73;0.80;;;;;;;3.40;94.36;100691.59;5045697;28;20036;-70
2023/12/07 00:43:58;;;;;;;3.42;0.77;;;;;;;3.42;94.09;100692.34;5056582;28;20474;-70
2023/12/07 00:46:23;;;;;;;3.65;0.63;;;;;;;3.40;93.53;100686.44;5063283;28;20037;-69
2023/12/07 00:48:48;;;;;;;2.25;0.93;;;;;;;3.42;93.52;100692.34;5060777;28;20033;-70
2023/12/07 00:51:15;;;;;;;3.63;0.70;;;;;;;3.48;93.32;100696.28;5055839;28;20528;-69
2023/12/07 00:53:41;;;;;;;2.97;0.68;;;;;;;3.52;92.58;100683.13;5050162;28;20162;-69
2023/12/07 00:56:07;;;;;;;2.13;0.55;;;;;;;3.53;92.62;100694.25;5065951;28;20052;-69
2023/12/07 00:58:32;;;;;;;4.80;1.00;;;;;;;3.50;92.68;100697.03;5053812;28;20159;-69
2023/12/07 01:00:57;;;;;;;2.50;0.93;;;;;;;3.47;94.33;100694.63;5061878;28;20048;-70
2023/12/07 01:03:23;;;;;;;2.50;0.50;;;;;;;3.48;94.30;100694.53;5052749;28;20111;-69
2023/12/07 01:05:48;;;;;;;2.35;0.73;;;;;;;3.47;94.14;100692.88;5055782;28;20028;-70
2023/12/07 01:08:14;;;;;;;1.25;0.45;;;;;;;3.58;92.65;100692.25;5066111;28;20029;-70
2023/12/07 01:10:39;;;;;;;3.47;0.98;;;;;;;3.58;92.02;100693.06;5062690;28;20029;-69
2023/12/07 01:13:05;;;;;;;1.95;0.52;;;;;;;3.57;91.83;100691.41;5058003;28;20032;-70
2023/12/07 01:15:31;;;;;;;1.38;0.40;;;;;;;3.58;93.12;100682.75;5056815;28;20517;-70
2023/12/07 01:17:56;;;;;;;2.03;0.60;;;;;;;3.57;92.75;100690.59;5052184;28;20107;-70
2023/12/07 01:20:21;;;;;;;2.63;0.90;;;;;;;3.48;92.45;100691.97;5057865;28;20497;-70
2023/12/07 01:22:47;;;;;;;2.05;0.80;;;;;;;3.41;93.46;100689.84;5052891;28;20028;-70
2023/12/07 01:25:16;;;;;;;2.25;0.65;;;;;;;3.36;94.35;100692.72;5061107;28;20028;-70
2023/12/07 01:27:42;;;;;;;1.50;0.80;;;;;;;3.41;94.21;100689.84;5056563;28;20037;-69
2023/12/07 01:30:08;;;;;;;1.10;0.55;;;;;;;3.51;93.96;100696.09;5055812;28;20032;-70
2023/12/07 01:32:34;;;;;;;4.05;0.85;;;;;;;3.58;92.38;100698.22;5049596;28;20032;-69
2023/12/07 01:34:59;;;;;;;1.30;0.57;;;;;;;3.57;92.70;100701.72;5059798;28;20029;-70
2023/12/07 01:37:25;;;;;;;1.33;0.60;;;;;;;3.52;92.18;100698.59;5066074;28;20036;-70
2023/12/07 01:39:50;;;;;;;2.38;0.73;;;;;;;3.53;93.13;100692.53;5068217;28;20074;-70
2023/12/07 01:42:16;;;;;;;1.48;0.57;;;;;;;3.52;92.23;100698.59;5062068;28;20039;-69
2023/12/07 01:44:41;;;;;;;3.60;0.90;;;;;;;3.54;91.94;100696.75;5058926;28;20181;-69
2023/12/07 01:47:08;;;;;;;1.50;0.57;;;;;;;3.63;91.37;100691.03;5067366;28;20416;-70
2023/12/07 01:49:34;;;;;;;1.33;0.50;;;;;;;3.63;93.23;100685.88;5070707;28;20119;-70
2023/12/07 01:52:01;;;;;;;1.38;0.47;;;;;;;3.63;92.91;100696.19;5060946;28;20052;-70
2023/12/07 01:54:26;;;;;;;2.17;0.60;;;;;;;3.67;93.93;100695.09;5060025;28;20388;-70
2023/12/07 01:56:52;;;;;;;2.67;0.70;;;;;;;3.59;93.31;100694.72;5061376;28;20111;-69
2023/12/07 01:59:18;;;;;;;2.10;0.40;;;;;;;3.64;90.95;100691.88;5058604;28;20524;-69
2023/12/07 02:01:44;;;;;;;2.35;0.60;;;;;;;3.72;91.55;100688.81;5066040;28;20033;-70
2023/12/07 02:04:10;;;;;;;1.35;0.40;;;;;;;3.80;91.36;100694.28;5050830;28;20041;-69
2023/12/07 02:06:36;;;;;;;1.75;0.40;;;;;;;3.84;91.70;100694.00;5055647;28;20091;-70
2023/12/07 02:09:02;;;;;;;2.78;0.50;;;;;;;3.82;91.38;100695.03;5055991;28;20396;-70
2023/12/07 02:11:27;;;;;;;1.52;0.40;;;;;;;3.80;91.58;100704.59;5062331;28;20025;-70
2023/12/07 02:13:55;;;;;;;2.33;0.60;;;;;;;3.72;92.51;100710.25;5064281;28;20470;-69
2023/12/07 02:16:51;;;;;;;1.67;0.40;;;;;;;3.74;90.92;100711.00;5053827;28;20451;-70
2023/12/07 02:19:31;;;;;;;1.25;0.70;;;;;;;3.76;91.24;100708.31;5051463;28;20482;-69
2023/12/07 02:22:02;;;;;;;2.55;0.70;;;;;;;3.67;91.72;100715.69;5060353;28;20111;-70
2023/12/07 02:24:33;;;;;;;2.95;0.90;;;;;;;3.60;91.92;100717.00;5065217;28;20028;-69
2023/12/07 02:26:59;;;;;;;1.95;0.68;;;;;;;3.57;92.74;100724.91;5066233;28;20395;-70
2023/12/07 02:29:24;;;;;;;4.55;0.60;;;;;;;3.56;94.77;100725.00;5055886;28;20021;-70
2023/12/07 02:31:50;;;;;;;2.03;0.70;;;;;;;3.49;93.85;100727.13;5050583;28;20032;-69
2023/12/07 02:34:15;;;;;;;1.38;0.47;;;;;;;3.49;95.84;100729.69;5065472;28;20524;-70
2023/12/07 02:36:44;;;;;;;2.58;0.63;;;;;;;3.42;98.05;100736.13;5058959;28;20032;-70
2023/12/07 02:39:12;;;;;;;2.13;0.60;;;;;;;3.30;99.33;100736.88;5060349;28;20033;-70
2023/12/07 02:41:39;;;;;;;1.17;0.38;;;;;;;3.31;99.84;100743.66;5059293;28;20028;-70
2023/12/07 02:44:05;;;;;;;2.75;0.68;;;;;;;3.31;99.83;100746.25;5061876;28;20036;-70
2023/12/07 02:46:30;;;;;;;3.47;1.10;;;;;;;3.28;98.98;100744.72;5054428;28;20370;-69
2023/12/07 02:48:58;;;;;;;2.55;0.68;;;;;;;3.40;94.91;100743.13;5069151;28;20028;-70
2023/12/07 02:51:23;;;;;;;1.45;0.50;;;;;;;3.46;94.97;100747.91;5048839;28;20416;-69
2023/12/07 02:53:49;;;;;;;2.90;0.85;;;;;;;3.43;94.68;100745.50;5054292;28;20028;-70
2023/12/07 02:56:14;;;;;;;2.30;0.90;;;;;;;3.42;94.13;100748.19;5062571;28;20497;-70
2023/12/07 02:58:39;;;;;;;2.33;0.88;;;;;;;3.41;94.99;100749.94;5057360;28;20051;-70
2023/12/07 03:01:05;;;;;;;1.25;0.40;;;;;;;3.50;93.67;100741.66;5060674;28;20033;-70
2023/12/07 03:03:31;;;;;;;1.92;0.57;;;;;;;3.59;92.74;100748.81;5060090;28;20037;-70
2023/12/07 03:05:56;;;;;;;1.30;0.50;;;;;;;3.65;92.04;100752.78;5058199;28;20366;-70
2023/12/07 03:08:21;;;;;;;1.13;0.40;;;;;;;3.71;90.93;100751.59;5064797;28;20462;-70
2023/12/07 03:10:47;;;;;;;1.75;0.40;;;;;;;3.76;90.64;100752.97;5062385;28;20016;-69
2023/12/07 03:13:12;;;;;;;0.80;0.35;;;;;;;3.81;90.43;100762.97;5055298;28;20045;-69
2023/12/07 03:15:38;;;;;;;0.80;0.30;;;;;;;3.86;89.53;100766.09;5061484;28;20093;-70
2023/12/07 03:18:03;;;;;;;1.83;0.60;;;;;;;3.91;89.12;100757.16;5064800;28;20044;-70
2023/12/07 03:20:29;;;;;;;2.15;0.60;;;;;;;3.90;89.73;100764.97;5053461;28;20044;-70
2023/12/07 03:22:54;;;;;;;4.35;0.60;;;;;;;3.89;88.76;100760.75;5052904;28;20041;-69
2023/12/07 03:25:20;;;;;;;1.23;0.40;;;;;;;3.92;88.94;100769.13;5059559;28;20032;-70
2023/12/07 03:27:45;;;;;;;1.40;0.52;;;;;;;3.88;90.63;100770.22;5060490;28;20060;-70
2023/12/07 03:30:11;;;;;;;2.22;0.50;;;;;;;3.80;89.75;100769.03;5062533;28;20021;-70
2023/12/07 03:32:37;;;;;;;1.90;0.60;;;;;;;3.77;90.43;100774.41;5055990;28;20386;-70
2023/12/07 03:35:03;;;;;;;0.85;0.40;;;;;;;3.73;90.29;100773.78;5052816;28;20111;-70
2023/12/07 03:37:28;;;;;;;1.15;0.40;;;;;;;3.75;89.66;100776.25;5064563;28;20037;-69
2023/12/07 03:39:54;;;;;;;1.38;0.43;;;;;;;3.78;89.76;100781.22;5061100;28;20059;-70
2023/12/07 03:42:19;;;;;;;1.83;0.43;;;;;;;3.76;90.41;100776.16;5057315;28;20061;-70
2023/12/07 03:44:45;;;;;;;1.92;0.40;;;;;;;3.76;90.27;100777.91;5067805;28;20087;-70
2023/12/07 03:47:10;;;;;;;1.42;0.50;;;;;;;3.74;90.24;100772.03;5051669;28;20017;-71
2023/12/07 03:49:36;;;;;;;2.75;0.70;;;;;;;3.77;90.01;100775.25;5057140;28;20126;-70
2023/12/07 03:52:01;;;;;;;1.05;0.60;;;;;;;3.75;88.89;100773.69;5058569;28;20043;-70
2023/12/07 03:54:27;;;;;;;1.45;0.40;;;;;;;3.73;90.29;100775.50;5054355;28;20036;-70
2023/12/07 03:56:52;;;;;;;2.55;0.65;;;;;;;3.73;89.75;100775.50;5053226;28;20387;-70
2023/12/07 03:59:17;;;;;;;1.02;0.30;;;;;;;3.76;91.01;100777.91;5049649;28;20088;-70
2023/12/07 04:01:43;;;;;;;1.42;0.50;;;;;;;3.74;93.06;100790.06;5042423;28;20032;-70
2023/12/07 04:04:08;;;;;;;1.90;0.43;;;;;;;3.63;94.54;100796.69;5061418;28;20485;-70
2023/12/07 04:06:34;;;;;;;1.65;0.45;;;;;;;3.50;95.72;100798.31;5052755;28;20037;-70
2023/12/07 04:08:59;;;;;;;3.55;0.50;;;;;;;3.48;94.66;100797.59;5062274;28;20126;-70
2023/12/07 04:11:25;;;;;;;2.45;0.88;;;;;;;3.49;95.96;100799.25;5058473;28;20390;-70
2023/12/07 04:13:50;;;;;;;1.55;0.40;;;;;;;3.54;92.52;100797.22;5057578;28;20048;-70
2023/12/07 04:16:16;;;;;;;1.95;0.80;;;;;;;3.58;92.96;100795.28;5059346;28;20474;-70
2023/12/07 04:18:41;;;;;;;2.17;0.50;;;;;;;3.63;92.12;100803.59;5061283;28;20134;-70
2023/12/07 04:21:07;;;;;;;3.47;0.55;;;;;;;3.69;92.33;100802.38;5061231;28;20020;-70
2023/12/07 04:23:33;;;;;;;1.60;0.57;;;;;;;3.67;93.55;100810.22;5059179;28;20033;-70
2023/12/07 04:25:58;;;;;;;3.95;0.85;;;;;;;3.61;93.66;100813.16;5062302;28;20029;-70
2023/12/07 04:28:24;;;;;;;2.33;0.40;;;;;;;3.62;93.12;100818.22;5055479;28;20560;-70
2023/12/07 04:30:49;;;;;;;4.30;0.93;;;;;;;3.64;92.84;100821.53;5051734;28;20032;-70
2023/12/07 04:33:15;;;;;;;3.00;0.82;;;;;;;3.69;91.60;100823.00;5060150;28;20040;-70
2023/12/07 04:35:40;;;;;;;1.52;0.55;;;;;;;3.71;91.83;100826.31;5058116;28;20130;-70
2023/12/07 04:38:06;;;;;;;1.77;0.70;;;;;;;3.78;90.54;100825.84;5061548;28;20504;-70
2023/12/07 04:40:31;;;;;;;1.30;0.55;;;;;;;3.78;89.78;100823.25;5064863;28;20486;-69
2023/12/07 04:42:56;;;;;;;1.45;0.60;;;;;;;3.78;90.47;100820.69;5063056;28;20173;-70
2023/12/07 04:45:22;;;;;;;2.45;0.77;;;;;;;3.75;90.34;100822.66;5059119;28;20028;-70
2023/12/07 04:47:47;;;;;;;1.38;0.47;;;;;;;3.75;90.09;100826.03;5062590;28;20025;-70
2023/12/07 04:50:13;;;;;;;1.08;0.47;;;;;;;3.76;90.76;100825.13;5060675;28;20579;-70
2023/12/07 04:52:38;;;;;;;3.00;0.50;;;;;;;3.80;89.83;100825.75;5059790;28;20032;-70
2023/12/07 04:55:06;;;;;;;1.55;0.30;;;;;;;3.84;89.54;100822.06;5064191;28;20063;-70
2023/12/07 04:57:35;;;;;;;0.98;0.47;;;;;;;3.91;89.20;100825.94;5054672;28;20049;-70
2023/12/07 05:00:00;;;;;;;1.02;0.45;;;;;;;3.98;88.15;100834.94;5059799;28;20028;-70
2023/12/07 05:02:27;;;;;;;2.05;0.75;;;;;;;4.03;87.48;100832.09;5065694;28;20040;-70
2023/12/07 05:04:53;;;;;;;0.60;0.30;;;;;;;4.02;87.76;100835.59;5063612;28;20108;-70
2023/12/07 05:07:19;;;;;;;3.50;0.30;;;;;;;3.98;89.31;100840.94;5060511;28;20116;-70
2023/12/07 05:09:45;;;;;;;1.20;0.30;;;;;;;3.92;89.37;100840.47;5062463;28;20032;-70
2023/12/07 05:12:11;;;;;;;2.33;0.30;;;;;;;3.94;88.69;100843.78;5065002;28;20086;-70
2023/12/07 05:14:36;;;;;;;1.90;0.38;;;;;;;3.95;88.01;100845.44;5061850;28;20467;-70
2023/12/07 05:17:02;;;;;;;2.50;0.40;;;;;;;3.94;89.34;100847.19;5057730;28;20730;-70
2023/12/07 05:19:28;;;;;;;0.60;0.30;;;;;;;3.91;88.17;100846.56;5064088;28;20121;-70
2023/12/07 05:21:53;;;;;;;2.00;0.73;;;;;;;3.85;91.19;100852.06;5061444;28;20029;-70
2023/12/07 05:24:19;;;;;;;2.08;0.32;;;;;;;3.80;90.35;100851.50;5065528;28;20058;-70
2023/12/07 05:26:46;;;;;;;2.80;0.30;;;;;;;3.77;89.99;100862.03;5062057;28;20029;-70
2023/12/07 05:29:12;;;;;;;1.77;0.60;;;;;;;3.76;89.54;100855.22;5068822;28;20064;-71
2023/12/07 05:31:37;;;;;;;1.95;0.52;;;;;;;3.73;90.07;100861.38;5062137;28;20082;-69
2023/12/07 05:34:03;;;;;;;1.58;0.75;;;;;;;3.77;89.31;100868.03;5070654;28;20032;-70
2023/12/07 05:36:29;;;;;;;1.25;0.38;;;;;;;3.78;89.03;100866.28;5065815;28;20039;-70
2023/12/07 05:38:54;;;;;;;1.25;0.52;;;;;;;3.73;90.04;100860.56;5068697;28;20089;-70
2023/12/07 05:41:20;;;;;;;1.55;0.40;;;;;;;3.65;89.82;100864.41;5066744;28;20039;-69
2023/12/07 05:43:45;;;;;;;1.92;0.73;;;;;;;3.59;90.52;100864.78;5065769;28;20099;-70
2023/12/07 05:46:11;;;;;;;3.45;0.40;;;;;;;3.57;90.62;100868.34;5059379;28;20093;-70
2023/12/07 05:48:37;;;;;;;1.98;0.50;;;;;;;3.55;89.85;100870.19;5055312;28;20093;-71
2023/12/07 05:51:03;;;;;;;1.63;0.60;;;;;;;3.54;89.72;100871.94;5069742;28;20100;-69
2023/12/07 05:53:28;;;;;;;1.63;0.40;;;;;;;3.52;89.44;100866.06;5067779;28;20152;-69
2023/12/07 05:55:54;;;;;;;1.27;0.43;;;;;;;3.53;90.06;100874.59;5068416;28;20147;-69
2023/12/07 05:58:20;;;;;;;3.53;0.68;;;;;;;3.49;90.34;100873.97;5060598;28;20048;-69
2023/12/07 06:00:46;;;;;;;1.50;0.75;;;;;;;3.44;90.39;100878.53;5052161;28;20032;-70
2023/12/07 06:03:13;;;;;;;2.28;0.45;;;;;;;3.40;90.41;100874.47;5056281;28;20075;-70
2023/12/07 06:05:39;;;;;;;2.80;0.60;;;;;;;3.38;90.97;100878.06;5063877;28;20036;-69
2023/12/07 06:08:04;;;;;;;2.20;0.65;;;;;;;3.33;91.19;100883.47;5069585;28;20036;-70
2023/12/07 06:10:30;;;;;;;2.05;0.60;;;;;;;3.32;91.18;100879.25;5067396;28;20040;-70
2023/12/07 06:12:58;;;;;;;2.38;0.50;;;;;;;3.32;91.17;100882.66;5060971;28;20174;-71
2023/12/07 06:15:24;;;;;;;2.00;0.52;;;;;;;3.29;91.71;100882.84;5062322;28;20041;-70
2023/12/07 06:17:49;;;;;;;2.63;0.93;;;;;;;3.28;90.96;100886.34;5057339;28;20091;-71
2023/12/07 06:20:15;;;;;;;2.72;0.50;;;;;;;3.29;90.69;100882.03;5063383;28;20032;-70
2023/12/07 06:22:41;;;;;;;3.30;0.98;;;;;;;3.32;90.64;100889.53;5057230;28;20064;-70
2023/12/07 06:25:08;;;;;;;1.73;0.50;;;;;;;3.36;90.22;100885.88;5060100;28;20113;-70
2023/12/07 06:27:36;;;;;;;2.47;0.80;;;;;;;3.29;91.23;100882.84;5064711;28;20036;-70
2023/12/07 06:30:05;;;;;;;2.67;0.63;;;;;;;3.33;90.30;100888.63;5047231;28;20035;-70
2023/12/07 06:32:31;;;;;;;1.92;0.50;;;;;;;3.31;90.61;100893.03;5060132;28;20083;-70
2023/12/07 06:34:56;;;;;;;1.77;0.50;;;;;;;3.26;90.52;100887.34;5066135;28;20086;-70
2023/12/07 06:37:22;;;;;;;2.92;0.80;;;;;;;3.24;90.08;100884.03;5063230;28;20059;-70
2023/12/07 06:39:48;;;;;;;5.30;0.85;;;;;;;3.23;90.63;100892.66;5064009;28;20031;-70
2023/12/07 06:42:14;;;;;;;2.88;0.40;;;;;;;3.18;90.89;100887.78;5065137;28;20067;-70
2023/12/07 06:44:40;;;;;;;4.90;0.60;;;;;;;3.20;91.04;100892.84;5063523;28;20118;-70
2023/12/07 06:47:05;;;;;;;4.03;0.80;;;;;;;3.22;91.52;100897.00;5060027;28;20192;-70
2023/12/07 06:49:31;;;;;;;4.40;0.63;;;;;;;3.15;92.38;100890.53;5055104;28;20033;-70
2023/12/07 06:51:56;;;;;;;5.63;0.63;;;;;;;3.17;90.84;100899.00;5059219;28;20509;-70
2023/12/07 06:54:22;;;;;;;1.98;0.60;;;;;;;3.25;90.55;100901.97;5064148;28;20051;-70
2023/12/07 06:56:48;;;;;;;2.10;0.68;;;;;;;3.19;91.06;100902.31;5049801;28;20504;-70
2023/12/07 06:59:13;;;;;;;3.13;0.40;;;;;;;3.13;91.66;100896.69;5063050;28;20398;-70
2023/12/07 07:01:40;;;;;;;3.75;0.60;;;;;;;3.03;92.16;100903.25;5067157;28;20488;-70
2023/12/07 07:04:05;;;;;;;2.67;0.68;;;;;;;3.00;92.52;100911.97;5062786;28;20055;-70
2023/12/07 07:06:31;;;;;;;3.35;0.68;;;;;;;2.99;92.87;100911.16;5064795;28;20482;-70
2023/12/07 07:08:56;;;;;;;2.05;0.70;;;;;;;2.99;92.79;100916.28;5061603;28;20319;-70
2023/12/07 07:11:22;;;;;;;3.25;0.60;;;;;;;3.02;92.07;100919.63;5060583;28;20486;-70
2023/12/07 07:13:47;;;;;;;2.58;1.23;;;;;;;3.03;91.90;100919.53;5066737;28;20393;-70
2023/12/07 07:16:13;;;;;;;4.22;0.82;;;;;;;3.07;91.56;100925.34;5058910;28;20036;-70
2023/12/07 07:18:39;;;;;;;8.98;1.38;;;;;;;3.11;91.20;100924.25;5065692;28;20028;-71
2023/12/07 07:21:05;;;;;;;5.63;1.77;;;;;;;3.20;90.33;100928.91;5059950;28;20025;-70
2023/12/07 07:23:30;;;;;;;6.10;1.95;;;;;;;3.30;89.55;100938.59;5059188;28;20033;-70
2023/12/07 07:25:56;;;;;;;6.07;1.67;;;;;;;3.30;89.60;100936.03;5059101;28;20491;-70
2023/12/07 07:28:22;;;;;;;7.10;2.05;;;;;;;3.30;89.78;100940.34;5057356;28;20043;-70
2023/12/07 07:30:47;;;;;;;5.70;1.75;;;;;;;3.29;89.68;100938.69;5056768;28;20347;-70
2023/12/07 07:33:13;;;;;;;4.80;1.33;;;;;;;3.32;90.22;100943.63;5062726;28;20033;-70
2023/12/07 07:35:38;;;;;;;3.08;0.60;;;;;;;3.38;89.25;100943.28;5062514;28;20077;-70
2023/12/07 07:38:04;;;;;;;3.08;1.00;;;;;;;3.47;88.17;100937.63;5055371;28;20051;-70
2023/12/07 07:40:29;;;;;;;1.25;0.40;;;;;;;3.51;88.61;100941.69;5052648;28;20040;-70
2023/12/07 07:42:55;;;;;;;2.15;0.70;;;;;;;3.55;87.40;100953.47;5063939;28;20040;-70
2023/12/07 07:45:20;;;;;;;1.27;0.40;;;;;;;3.58;87.23;100963.59;5055964;28;20439;-70
2023/12/07 07:47:46;;;;;;;2.15;0.43;;;;;;;3.57;88.12;100961.13;5055359;28;20032;-70
2023/12/07 07:50:11;;;;;;;4.38;0.50;;;;;;;3.56;88.49;100968.00;5055141;28;20024;-70
2023/12/07 07:52:37;;;;;;;0.88;0.50;;;;;;;3.60;87.87;100972.06;5055563;28;20037;-70
2023/12/07 07:55:04;;;;;;;3.15;0.95;;;;;;;3.61;87.76;100971.16;5055277;28;20028;-70
2023/12/07 07:57:30;;;;;;;2.13;0.70;;;;;;;3.60;87.63;100972.06;5056007;28;20032;-70
2023/12/07 07:59:57;;;;;;;1.13;0.47;;;;;;;3.58;88.32;100976.50;5055536;28;20055;-70
2023/12/07 08:02:22;;;;;;;2.85;0.60;;;;;;;3.58;88.20;100976.50;5061897;28;20082;-70
2023/12/07 08:04:48;;;;;;;2.00;0.80;;;;;;;3.61;88.27;100973.75;5048387;28;20036;-70
2023/12/07 08:07:13;;;;;;;2.10;0.68;;;;;;;3.71;88.04;100980.94;5054051;28;20039;-70
2023/12/07 08:09:39;;;;;;;5.57;0.95;;;;;;;3.77;86.80;100988.34;5052895;28;20029;-70
2023/12/07 08:12:06;;;;;;;1.08;0.40;;;;;;;3.79;86.84;100986.47;5049808;28;20107;-70
2023/12/07 08:14:32;;;;;;;4.28;1.00;;;;;;;3.81;87.74;100995.78;5055900;28;20033;-71
2023/12/07 08:16:57;;;;;;;3.47;1.38;;;;;;;3.81;87.65;100989.78;5061251;28;20048;-70
2023/12/07 08:19:23;;;;;;;4.25;0.88;;;;;;;3.91;87.36;100988.34;5052307;28;20112;-70
2023/12/07 08:21:50;;;;;;;7.55;1.10;;;;;;;3.91;88.85;100983.19;5057963;28;20078;-71
2023/12/07 08:24:16;;;;;;;5.03;1.23;;;;;;;3.91;88.90;100988.34;5062308;28;20048;-71
2023/12/07 08:26:41;;;;;;;15.05;3.90;;;;;;;3.95;88.57;100989.81;5059210;28;20025;-70
2023/12/07 08:29:07;;;;;;;12.85;3.45;;;;;;;4.08;87.25;100993.34;5062974;28;20103;-70
2023/12/07 08:31:32;;;;;;;3.25;1.35;;;;;;;4.09;86.76;100992.44;5065718;28;20120;-70
2023/12/07 08:33:58;;;;;;;2.67;1.05;;;;;;;4.17;87.33;100984.25;5053373;28;20035;-70
2023/12/07 08:36:23;;;;;;;5.78;0.90;;;;;;;4.27;86.34;100983.59;5057500;28;20481;-70
2023/12/07 08:38:48;;;;;;;3.90;1.15;;;;;;;4.36;85.31;100989.13;5048308;28;20460;-71
2023/12/07 08:41:14;;;;;;;3.53;0.88;;;;;;;4.42;86.05;100997.31;5051107;28;20029;-71
2023/12/07 08:43:40;;;;;;;2.30;0.63;;;;;;;4.43;85.41;101000.72;5052172;28;20397;-71
2023/12/07 08:46:07;;;;;;;2.65;1.02;;;;;;;4.47;85.24;101002.22;5036858;28;20041;-70
2023/12/07 08:48:34;;;;;;;5.90;1.35;;;;;;;4.52;85.34;101006.16;5061007;28;20094;-70
2023/12/07 08:50:59;;;;;;;2.90;1.25;;;;;;;4.56;85.90;101007.66;5060931;28;20020;-71
2023/12/07 08:53:26;;;;;;;2.97;0.85;;;;;;;4.61;84.27;101004.78;5057561;28;20028;-71
2023/12/07 08:55:52;;;;;;;2.67;0.80;;;;;;;4.68;84.87;101010.41;5064280;28;20044;-71
2023/12/07 08:58:18;;;;;;;2.78;0.95;;;;;;;4.74;84.49;101016.00;5055339;28;20025;-71
2023/12/07 09:00:44;;;;;;;2.95;0.88;;;;;;;4.82;84.87;101011.19;5064357;28;20025;-71
2023/12/07 09:03:09;;;;;;;3.63;0.57;;;;;;;4.98;83.96;101019.66;5060217;28;20486;-70
2023/12/07 09:05:35;;;;;;;3.85;0.68;;;;;;;5.09;83.37;101019.00;5057946;28;20068;-71
2023/12/07 09:08:00;;;;;;;2.13;0.52;;;;;;;5.12;83.20;101018.00;5065170;28;20063;-71
2023/12/07 09:10:26;;;;;;;1.98;0.75;;;;;;;5.20;83.44;101015.75;5056428;28;20564;-71
2023/12/07 09:12:52;;;;;;;2.42;0.95;;;;;;;5.25;84.00;101024.84;5057218;28;20049;-71
2023/12/07 09:15:17;;;;;;;4.70;1.08;;;;;;;5.33;82.08;101024.38;5054427;28;20040;-71
2023/12/07 09:17:43;;;;;;;3.20;0.90;;;;;;;5.43;82.73;101027.19;5066833;28;20083;-71
2023/12/07 09:20:12;;;;;;;1.63;0.60;;;;;;;5.46;83.08;101027.84;5056914;28;20473;-71
2023/12/07 09:35:10;;;;;;;2.65;1.02;;;;;;;5.81;81.17;101016.94;5102942;27;20383;-69
2023/12/07 09:37:35;;;;;;;2.10;0.70;;;;;;;5.79;80.52;101011.88;5085661;28;21028;-69
2023/12/07 09:40:01;;;;;;;2.00;0.65;;;;;;;5.95;79.22;101011.75;5087210;28;20128;-69
2023/12/07 09:42:27;;;;;;;2.35;0.77;;;;;;;5.96;81.68;101011.63;5086853;28;20038;-70
2023/12/07 09:44:54;;;;;;;2.08;0.65;;;;;;;5.99;81.95;101013.19;5086925;28;20036;-69
2023/12/07 09:47:20;;;;;;;6.28;1.83;;;;;;;6.04;80.25;101010.31;5083830;28;20028;-69
2023/12/07 09:49:45;;;;;;;2.53;0.80;;;;;;;6.09;79.90;101009.06;5086602;28;20439;-70
2023/12/07 09:52:11;;;;;;;2.58;0.77;;;;;;;6.15;80.16;101012.97;5086492;28;20507;-69
2023/12/07 09:54:41;;;;;;;6.68;2.17;;;;;;;6.31;78.79;101008.44;5086560;28;20036;-69
2023/12/07 09:57:06;;;;;;;6.85;2.80;;;;;;;6.33;77.73;101004.00;5086649;28;20074;-70
2023/12/07 09:59:33;;;;;;;3.88;1.83;;;;;;;6.43;77.81;101001.59;5084666;28;20448;-70
2023/12/07 10:02:00;;;;;;;2.25;0.63;;;;;;;6.43;78.35;100997.25;5085552;28;20032;-70
2023/12/07 10:04:26;;;;;;;1.05;0.50;;;;;;;6.45;77.37;101000.56;5080985;28;20037;-70
2023/12/07 10:06:52;;;;;;;3.67;0.85;;;;;;;6.42;79.69;100995.59;5086064;28;20034;-69
2023/12/07 10:09:21;;;;;;;2.58;0.50;;;;;;;6.45;78.35;101000.56;5086926;28;20085;-70
2023/12/07 10:11:47;;;;;;;2.47;0.93;;;;;;;6.59;78.79;100994.44;5085148;28;20074;-70
2023/12/07 10:14:13;;;;;;;6.20;2.50;;;;;;;6.76;77.53;100988.91;5085575;28;20051;-70
2023/12/07 10:16:38;;;;;;;3.22;1.05;;;;;;;6.77;77.76;100985.38;5084517;28;20055;-70
2023/12/07 10:19:21;;;;;;;2.17;0.82;;;;;;;6.85;76.73;100990.03;5085510;28;20040;-70
2023/12/07 10:21:47;;;;;;;1.67;0.70;;;;;;;6.92;76.34;100989.50;5084569;28;20047;-70
2023/12/07 10:24:13;;;;;;;2.20;1.02;;;;;;;6.96;74.66;100985.75;5084639;28;20077;-70
2023/12/07 10:26:40;;;;;;;1.98;0.93;;;;;;;6.86;77.26;100981.31;5084885;28;20043;-69
2023/12/07 10:29:06;;;;;;;1.58;0.90;;;;;;;6.83;79.37;100979.78;5085246;28;20036;-70
2023/12/07 10:31:35;;;;;;;1.83;0.80;;;;;;;6.80;80.62;100981.75;5085199;28;20484;-69
2023/12/07 10:34:02;;;;;;;2.65;0.50;;;;;;;6.69;78.43;100977.31;5080922;28;20139;-70
2023/12/07 10:36:29;;;;;;;2.90;0.70;;;;;;;6.76;80.08;100977.72;5069150;28;20119;-69
2023/12/07 10:38:56;;;;;;;2.10;0.57;;;;;;;6.78;79.12;100971.50;5071883;28;20028;-69
2023/12/07 10:41:24;;;;;;;2.20;0.77;;;;;;;6.84;79.67;100976.25;5072030;28;20078;-69
2023/12/07 10:43:59;;;;;;;1.48;0.60;;;;;;;6.85;79.78;100977.91;5069425;28;20085;-71
2023/12/07 10:46:26;;;;;;;2.95;0.73;;;;;;;6.96;76.78;100964.19;5071437;28;20535;-69
2023/12/07 10:48:59;;;;;;;3.25;0.68;;;;;;;7.17;75.78;100969.59;5071781;28;20081;-70
2023/12/07 10:52:00;;;;;;;1.52;0.50;;;;;;;7.21;76.68;100961.50;5070805;28;20505;-69
2023/12/07 10:54:33;;;;;;;1.88;0.50;;;;;;;7.25;71.59;100964.69;5064436;28;20051;-70
2023/12/07 10:57:03;;;;;;;1.77;0.50;;;;;;;7.29;73.21;100964.34;5070727;28;20028;-70
2023/12/07 10:59:31;;;;;;;3.13;0.40;;;;;;;7.25;76.19;100960.34;5069753;28;21156;-69
2023/12/07 11:01:58;;;;;;;2.50;0.73;;;;;;;7.22;75.22;100967.50;5071181;28;20488;-68
2023/12/07 11:04:25;;;;;;;1.42;0.32;;;;;;;7.05;76.73;100963.56;5072490;28;20045;-68
2023/12/07 11:06:57;;;;;;;2.30;0.60;;;;;;;7.22;75.93;100967.50;5070996;28;20029;-68
2023/12/07 11:09:28;;;;;;;1.38;0.40;;;;;;;7.30;78.21;100960.81;5069209;28;20044;-69
2023/12/07 11:12:45;;;;;;;1.50;0.50;;;;;;;7.02;77.94;100962.94;5071533;28;20036;-69
2023/12/07 11:15:15;;;;;;;1.38;0.43;;;;;;;7.01;79.61;100969.06;5068574;28;20041;-69
2023/12/07 11:17:54;;;;;;;0.70;0.20;;;;;;;6.98;75.34;100962.31;5070251;28;20075;-68
2023/12/07 11:20:39;;;;;;;0.50;0.20;;;;;;;7.30;71.76;100960.81;5070081;28;20040;-68
2023/12/07 11:23:06;;;;;;;0.77;0.20;;;;;;;7.27;78.60;100962.81;5071527;28;20055;-68
2023/12/07 11:25:33;;;;;;;3.03;0.20;;;;;;;7.04;80.68;100958.47;5069691;28;20035;-68
2023/12/07 11:28:03;;;;;;;0.60;0.28;;;;;;;6.93;80.03;100956.66;5070445;28;20035;-68
2023/12/07 11:30:35;;;;;;;2.33;0.30;;;;;;;7.14;77.28;100952.50;5069572;28;20043;-68
2023/12/07 11:33:03;;;;;;;1.88;0.30;;;;;;;7.24;78.91;100950.91;5070480;28;20102;-68
2023/12/07 11:35:30;;;;;;;2.95;0.30;;;;;;;7.52;75.62;100952.31;5070196;28;20033;-68
2023/12/07 11:38:07;;;;;;;0.95;0.20;;;;;;;7.75;74.33;100942.81;5070707;28;20562;-68
2023/12/07 11:40:46;;;;;;;1.92;0.22;;;;;;;8.09;67.94;100953.22;5069989;28;20404;-68
2023/12/07 11:43:30;;;;;;;0.60;0.20;;;;;;;8.19;70.73;100951.59;5070064;28;20056;-68